Vlagtwedde, Netherlands
Current Conditions -  °F | °C
As of 5:25 AM on Friday 19 Dec 2014 (Local Time) from EHGG Reporting Station
Light Rain Light Rain  
Wind Chill: 52°   Ceiling: 800
Heat Index: 52°   Visibility: 5mi
Dew Point: 50°   Wind: 24mph
Humidity: 94%   Direction: 240°WSW
Pressure: 29.62"   Gusts: NA
Location:  53.03°N, 7.11°E
Report Text: EHGG 190425Z AUTO 24021KT 8000 -RA SCT007 BKN008 BKN010BKN015CB 11/10 Q1003
Loading
Personal Weather Stations






























Interactive Weather Map New forecast layout! Learn more

10-Day Weather Forecast

Advertisements
Track Severe Weather on mobile